Terminal Aerodrome Forecast
Issued by NWS

Home | Current Version | Previous Version | Text Only | Print | Product List | Glossary On
Versions: 1 2 3 4 5 6 7 8 9 10 11 12 13 14 15 16 17 18 19 20 21
000
FTUS41 KBOX 200535
TAFFMH
TAF
KFMH 200535Z 2006/2106 04014G20KT 2SM BR VCSH OVC003
      TEMPO 2011/2013 3/4SM -SHRA BR OVC002
     FM201300 04017G30KT 1 1/2SM -SHRA BR OVC008
     FM202000 03019G35KT 4SM -SHRA BR OVC008
     FM202200 03019G37KT 3SM -SHRA BR OVC008 WS020/04050KT=

USA.gov is the U.S. government's official web portal to all federal, state and local government web resources and services.